Time;durP1;ratioP1;P1;durP2;ratioP2;P2;SDS_P1;SDS_P2;PMS_P1;PMS_P2;Temp;Humidity;BMP_temperature;BMP_pressure;BME280_temperature;BME280_humidity;BME280_pressure;Samples;Min_cycle;Max_cycle;Signal;HPM_P1;HPM_P2
2022/01/30 00:02:11;;;;;;;24.60;4.65;;;;;;;5.64;87.70;102592.06;5010974;28;20053;-70
2022/01/30 00:04:36;;;;;;;30.55;3.47;;;;;;;5.67;87.64;102582.22;5013822;28;20482;-69
2022/01/30 00:07:02;;;;;;;20.58;3.58;;;;;;;5.70;86.84;102582.09;5012682;28;20026;-70
2022/01/30 00:09:27;;;;;;;31.05;4.45;;;;;;;5.61;87.08;102578.84;5013727;28;20061;-70
2022/01/30 00:11:57;;;;;;;24.80;3.30;;;;;;;5.36;87.98;102563.56;5014182;28;20065;-70
2022/01/30 00:14:25;;;;;;;31.17;5.05;;;;;;;5.46;87.84;102581.03;5011978;28;20547;-70
2022/01/30 00:16:58;;;;;;;20.27;3.88;;;;;;;5.27;88.37;102570.00;5013831;28;20410;-71
2022/01/30 00:19:34;;;;;;;20.90;3.28;;;;;;;5.23;88.51;102571.00;5012803;28;20091;-70
2022/01/30 00:22:16;;;;;;;23.80;3.30;;;;;;;5.19;88.89;102593.31;5013261;28;20037;-69
2022/01/30 00:24:55;;;;;;;21.20;3.63;;;;;;;5.13;89.09;102596.16;5011568;28;20026;-70
2022/01/30 00:27:29;;;;;;;27.25;3.67;;;;;;;5.08;89.13;102601.59;5000017;28;20039;-69
2022/01/30 00:29:54;;;;;;;26.38;4.07;;;;;;;5.11;89.25;102598.84;5013009;28;20033;-70
2022/01/30 00:32:20;;;;;;;31.58;4.32;;;;;;;5.01;89.76;102598.22;4997145;28;20396;-70
2022/01/30 00:34:45;;;;;;;26.20;4.30;;;;;;;4.98;90.61;102592.13;5012377;28;20044;-70
2022/01/30 00:37:10;;;;;;;19.02;3.20;;;;;;;5.00;89.95;102591.16;5014830;28;20353;-71
2022/01/30 00:39:36;;;;;;;24.67;4.38;;;;;;;4.97;90.12;102582.38;5010615;28;20036;-69
2022/01/30 00:42:02;;;;;;;21.45;3.50;;;;;;;4.95;90.21;102590.38;5013248;28;20044;-70
2022/01/30 00:44:27;;;;;;;29.98;3.75;;;;;;;4.90;90.53;102600.31;5010956;28;20040;-70
2022/01/30 00:46:55;;;;;;;18.75;3.05;;;;;;;5.02;89.95;102602.63;5017522;28;20056;-70
2022/01/30 00:49:20;;;;;;;15.32;3.35;;;;;;;5.06;89.79;102604.31;5016822;28;20164;-70
2022/01/30 00:51:45;;;;;;;33.05;4.40;;;;;;;4.90;90.13;102585.19;5018156;28;20029;-70
2022/01/30 00:54:10;;;;;;;21.90;3.45;;;;;;;4.84;90.66;102593.31;5016282;28;20069;-70
2022/01/30 00:56:36;;;;;;;21.98;4.05;;;;;;;4.86;90.66;102607.47;5015444;28;20087;-70
2022/01/30 00:59:01;;;;;;;24.85;3.53;;;;;;;4.76;91.19;102603.31;5015579;28;20037;-71
2022/01/30 01:01:26;;;;;;;29.98;4.13;;;;;;;4.69;91.87;102609.69;5015756;28;20037;-70
2022/01/30 01:03:52;;;;;;;23.70;3.53;;;;;;;4.70;91.69;102630.06;5031533;28;20029;-70
2022/01/30 01:06:17;;;;;;;27.98;4.13;;;;;;;4.59;92.51;102625.88;5014745;28;20458;-70
2022/01/30 01:08:52;;;;;;;23.40;3.17;;;;;;;4.60;92.49;102614.31;4997858;28;20025;-69
2022/01/30 01:24:28;;;;;;;22.65;3.65;;;;;;;4.55;90.75;102616.19;5017722;28;20411;-70
2022/01/30 01:26:53;;;;;;;17.90;3.97;;;;;;;4.57;90.34;102608.22;5016452;28;20060;-70
2022/01/30 01:29:19;;;;;;;23.33;3.53;;;;;;;4.55;90.80;102604.72;5017004;28;20436;-70
2022/01/30 01:31:44;;;;;;;30.45;5.38;;;;;;;4.30;91.21;102603.47;5033243;28;20105;-70
2022/01/30 01:34:32;;;;;;;21.27;3.42;;;;;;;4.36;91.42;102618.44;5015768;28;20029;-70
2022/01/30 01:36:57;;;;;;;27.40;4.22;;;;;;;4.45;90.87;102620.00;5019889;28;20041;-70
2022/01/30 01:39:22;;;;;;;23.35;4.57;;;;;;;4.46;91.01;102630.59;5013888;28;20719;-69
2022/01/30 01:41:49;;;;;;;22.38;3.33;;;;;;;4.41;91.45;102627.16;5014824;28;20120;-70
2022/01/30 01:44:16;;;;;;;18.52;4.03;;;;;;;4.43;90.87;102633.34;5015445;28;20029;-70
2022/01/30 01:46:42;;;;;;;18.15;2.92;;;;;;;4.42;90.50;102630.72;5015843;28;20171;-70
2022/01/30 01:49:10;;;;;;;19.42;4.18;;;;;;;4.31;90.76;102626.50;5014896;28;20328;-70
2022/01/30 01:51:36;;;;;;;20.15;3.00;;;;;;;4.38;90.74;102637.88;4999396;28;20112;-70
2022/01/30 01:54:01;;;;;;;24.88;3.25;;;;;;;4.33;90.62;102645.09;5017778;28;20063;-70
2022/01/30 01:56:28;;;;;;;25.67;4.32;;;;;;;4.30;91.11;102639.84;5013888;28;20519;-70
2022/01/30 01:58:53;;;;;;;29.83;4.10;;;;;;;4.33;90.63;102631.81;5014016;28;20120;-71
2022/01/30 02:01:18;;;;;;;26.42;2.97;;;;;;;4.32;90.34;102638.91;5014123;28;20035;-71
2022/01/30 02:03:44;;;;;;;29.50;3.55;;;;;;;4.19;90.68;102625.00;5010497;28;20116;-70
2022/01/30 02:06:13;;;;;;;20.98;3.13;;;;;;;4.27;90.78;102618.66;4998835;28;20033;-70
2022/01/30 02:08:46;;;;;;;23.58;3.80;;;;;;;4.30;90.92;102619.44;5015616;28;20018;-68
2022/01/30 02:11:27;;;;;;;30.15;5.05;;;;;;;4.34;90.46;102614.94;5014490;28;20044;-70
2022/01/30 02:14:17;;;;;;;21.45;2.88;;;;;;;4.34;90.35;102628.25;5030247;28;20084;-70
2022/01/30 02:27:40;;;;;;;49.38;4.20;;;;;;;4.32;90.21;102630.06;5016770;28;20192;-70
2022/01/30 02:30:09;;;;;;;17.75;2.58;;;;;;;4.36;90.04;102634.41;5014805;28;20446;-70
2022/01/30 02:32:35;;;;;;;19.55;3.53;;;;;;;4.21;90.81;102622.31;5014320;28;20108;-70
2022/01/30 02:35:00;;;;;;;19.38;3.78;;;;;;;4.20;90.85;102618.78;5014897;28;20059;-70
2022/01/30 02:37:25;;;;;;;21.48;3.00;;;;;;;4.29;91.25;102633.66;5015149;28;20390;-70
2022/01/30 02:39:51;;;;;;;26.05;3.33;;;;;;;4.17;91.37;102631.28;5014758;28;20033;-70
2022/01/30 02:42:20;;;;;;;23.80;3.88;;;;;;;4.22;91.86;102642.69;5013734;28;20710;-71
2022/01/30 02:44:52;;;;;;;16.90;3.50;;;;;;;4.25;92.11;102642.59;5014016;28;20033;-71
2022/01/30 02:52:38;;;;;;;29.17;4.05;;;;;;;4.29;92.45;102638.09;5009746;28;20034;-71
2022/01/30 02:55:05;;;;;;;24.08;3.78;;;;;;;4.45;91.47;102643.94;5013537;28;20033;-70
2022/01/30 02:57:30;;;;;;;25.98;3.85;;;;;;;4.43;92.03;102632.47;5031121;28;20045;-69
2022/01/30 02:59:56;;;;;;;22.40;3.78;;;;;;;4.56;91.23;102643.69;5013441;28;20025;-70
2022/01/30 03:02:21;;;;;;;26.08;3.67;;;;;;;4.61;90.63;102640.00;5013701;28;20065;-69
2022/01/30 03:04:46;;;;;;;26.45;4.07;;;;;;;4.55;90.48;102623.31;5012317;28;20124;-69
2022/01/30 03:07:12;;;;;;;18.67;3.65;;;;;;;4.62;90.21;102646.22;5017895;28;20061;-70
2022/01/30 03:09:37;;;;;;;28.08;4.13;;;;;;;4.60;90.54;102640.91;5030179;28;20033;-70
2022/01/30 03:12:03;;;;;;;22.70;4.43;;;;;;;4.45;91.20;102666.09;5014781;28;20029;-70
2022/01/30 03:14:29;;;;;;;26.23;5.03;;;;;;;4.48;90.68;102665.16;5014719;28;20150;-70
2022/01/30 03:16:54;;;;;;;16.67;2.78;;;;;;;4.56;90.11;102649.03;5010939;28;20040;-70
2022/01/30 03:19:20;;;;;;;26.95;3.35;;;;;;;4.33;90.74;102659.25;5013610;28;20057;-71
2022/01/30 03:21:45;;;;;;;23.85;3.50;;;;;;;4.33;90.72;102669.91;5014449;28;20155;-69
2022/01/30 03:24:10;;;;;;;20.23;2.85;;;;;;;4.15;91.79;102681.81;5014364;28;20585;-70
2022/01/30 03:26:39;;;;;;;11.15;2.70;;;;;;;4.15;92.89;102696.91;5017545;28;20033;-70
2022/01/30 03:29:06;;;;;;;15.43;2.83;;;;;;;4.23;92.44;102699.38;5013249;28;20132;-70
2022/01/30 03:31:41;;;;;;;20.35;2.65;;;;;;;4.32;92.28;102710.69;5016427;28;20123;-70
2022/01/30 03:34:09;;;;;;;23.98;2.90;;;;;;;4.37;92.26;102712.38;5028657;28;20039;-70
2022/01/30 03:36:35;;;;;;;20.48;2.90;;;;;;;4.42;92.09;102716.69;5016288;28;20027;-71
2022/01/30 03:39:01;;;;;;;29.77;4.13;;;;;;;4.49;91.77;102720.13;5015143;28;20037;-70
2022/01/30 03:41:26;;;;;;;19.10;2.22;;;;;;;4.44;91.41;102709.56;5013127;28;20496;-70
2022/01/30 03:43:52;;;;;;;20.02;3.20;;;;;;;4.51;91.50;102731.56;5015015;28;20044;-70
2022/01/30 03:46:19;;;;;;;17.25;2.80;;;;;;;4.40;91.28;102721.16;5016707;28;20550;-70
2022/01/30 03:48:44;;;;;;;15.50;2.60;;;;;;;4.41;90.86;102722.91;5000385;28;20064;-69
2022/01/30 03:51:09;;;;;;;21.48;3.60;;;;;;;4.39;90.93;102742.50;5013297;28;20033;-69
2022/01/30 03:53:35;;;;;;;12.85;3.25;;;;;;;4.25;91.53;102740.97;5016118;28;20132;-69
2022/01/30 03:56:00;;;;;;;11.57;2.35;;;;;;;4.27;91.69;102743.63;5015746;28;20505;-69
2022/01/30 03:58:25;;;;;;;17.77;2.42;;;;;;;4.06;91.71;102737.84;5014406;28;20022;-70
2022/01/30 04:00:51;;;;;;;13.82;2.05;;;;;;;4.05;91.87;102742.28;5015589;28;20435;-69
2022/01/30 04:03:16;;;;;;;25.27;4.13;;;;;;;3.93;92.18;102745.19;5011394;28;20033;-70
2022/01/30 04:05:41;;;;;;;12.65;2.88;;;;;;;3.82;92.44;102745.41;5015320;28;20029;-70
2022/01/30 04:08:07;;;;;;;16.98;2.70;;;;;;;3.85;92.36;102741.78;5013256;28;20562;-69
2022/01/30 04:10:33;;;;;;;19.55;3.53;;;;;;;3.79;91.96;102745.44;5012146;28;20026;-70
2022/01/30 04:12:58;;;;;;;14.45;2.40;;;;;;;3.80;91.15;102725.94;5013994;28;20045;-70
2022/01/30 04:15:24;;;;;;;18.10;3.03;;;;;;;3.80;90.80;102725.94;5015268;28;20177;-69
2022/01/30 04:17:49;;;;;;;21.10;3.40;;;;;;;3.94;90.29;102746.03;5029320;28;20033;-70
2022/01/30 04:20:15;;;;;;;16.45;2.33;;;;;;;3.84;90.66;102742.69;5017135;28;20040;-70
2022/01/30 04:22:40;;;;;;;16.05;2.85;;;;;;;3.78;90.58;102735.72;5015543;28;20036;-69
2022/01/30 04:25:06;;;;;;;16.95;2.72;;;;;;;3.74;89.97;102742.00;5019620;28;20033;-70
2022/01/30 04:27:32;;;;;;;10.73;2.55;;;;;;;3.64;90.23;102746.59;5021127;28;20116;-70
2022/01/30 04:29:57;;;;;;;16.25;2.50;;;;;;;3.77;89.53;102751.66;5023212;28;20026;-70
2022/01/30 04:32:25;;;;;;;12.85;1.85;;;;;;;3.72;89.31;102751.78;5019541;28;20037;-69
2022/01/30 04:34:55;;;;;;;14.80;2.30;;;;;;;3.71;88.72;102756.19;5031290;28;20029;-69
2022/01/30 04:37:29;;;;;;;20.10;3.08;;;;;;;3.78;87.71;102741.03;5022501;28;20037;-71
2022/01/30 04:53:35;;;;;;;20.05;2.58;;;;;;;3.86;85.58;102748.84;5028714;28;20036;-68
2022/01/30 04:58:51;;;;;;;9.35;1.95;;;;;;;3.66;86.45;102741.25;5021588;28;20038;-70
2022/01/30 05:04:18;;;;;;;10.25;2.20;;;;;;;3.68;86.64;102761.59;5017625;28;20060;-69
2022/01/30 05:07:27;;;;;;;19.75;3.17;;;;;;;3.59;87.05;102767.91;5018452;28;20120;-70
2022/01/30 05:09:39;;;;;;;13.93;2.38;;;;;;;3.51;87.29;102767.19;5013152;28;20075;-70
2022/01/30 05:12:05;;;;;;;9.82;1.45;;;;;;;3.44;87.56;102762.88;5018004;28;20125;-71
2022/01/30 05:14:36;;;;;;;7.53;1.50;;;;;;;3.45;88.11;102770.81;5017238;28;20029;-70
2022/01/30 05:17:03;;;;;;;10.55;1.92;;;;;;;3.35;88.21;102765.69;5019135;28;20068;-70
2022/01/30 05:19:29;;;;;;;12.65;2.17;;;;;;;3.37;88.91;102782.47;5016553;28;20032;-70
2022/01/30 05:21:54;;;;;;;16.08;2.08;;;;;;;3.36;89.19;102786.03;5018007;28;20045;-70
2022/01/30 05:24:20;;;;;;;15.90;1.95;;;;;;;3.39;89.55;102783.31;5017724;28;20480;-70
2022/01/30 05:26:46;;;;;;;10.52;1.67;;;;;;;3.49;89.09;102776.06;5019922;28;20124;-70
2022/01/30 05:29:12;;;;;;;10.18;2.00;;;;;;;3.54;88.82;102784.84;5014427;28;20025;-70
2022/01/30 05:31:38;;;;;;;3.78;1.63;;;;;;;3.44;89.43;102784.13;5019154;28;20083;-70
2022/01/30 05:34:04;;;;;;;11.02;1.85;;;;;;;3.36;89.55;102786.91;5014708;28;20358;-70
2022/01/30 05:36:30;;;;;;;8.70;1.85;;;;;;;3.44;89.56;102784.97;5016276;28;20033;-70
2022/01/30 05:38:56;;;;;;;21.23;2.50;;;;;;;3.33;89.45;102794.91;5015711;28;20801;-70
2022/01/30 05:41:21;;;;;;;12.25;1.92;;;;;;;3.26;89.40;102788.84;5015345;28;20029;-70
2022/01/30 05:43:51;;;;;;;13.27;1.80;;;;;;;3.15;89.87;102778.41;5014630;28;20029;-70
2022/01/30 05:46:28;;;;;;;9.80;1.80;;;;;;;3.18;89.67;102788.06;5020396;28;20065;-70
2022/01/30 05:48:54;;;;;;;12.25;1.70;;;;;;;3.20;89.48;102796.91;5012618;28;20025;-70
2022/01/30 05:51:19;;;;;;;8.50;1.48;;;;;;;3.23;89.21;102791.53;5020226;28;20048;-70
2022/01/30 05:53:44;;;;;;;15.05;2.25;;;;;;;3.42;88.41;102792.13;5015635;28;20309;-69
2022/01/30 05:56:11;;;;;;;19.48;2.05;;;;;;;3.34;88.41;102798.44;5001730;28;20493;-71
2022/01/30 05:58:36;;;;;;;15.65;1.83;;;;;;;3.38;88.44;102786.88;5014362;28;20433;-70
2022/01/30 06:01:02;;;;;;;12.40;1.73;;;;;;;3.38;88.35;102782.44;5016179;28;20026;-70
2022/01/30 06:03:29;;;;;;;15.52;1.92;;;;;;;3.38;87.91;102803.69;5013710;28;20029;-70
2022/01/30 06:05:54;;;;;;;15.07;1.70;;;;;;;3.41;87.96;102811.63;5018746;28;20037;-69
2022/01/30 06:08:39;;;;;;;10.00;1.95;;;;;;;3.42;88.09;102810.72;5015488;28;20386;-69
2022/01/30 06:11:05;;;;;;;10.50;1.80;;;;;;;3.47;87.47;102812.41;5017902;28;20498;-69
2022/01/30 06:13:30;;;;;;;8.70;1.95;;;;;;;3.50;87.23;102807.03;5014537;28;20127;-70
2022/01/30 06:15:55;;;;;;;12.23;2.30;;;;;;;3.41;87.54;102806.31;5017926;28;20033;-70
2022/01/30 06:18:21;;;;;;;24.95;2.50;;;;;;;3.35;87.55;102811.72;5029392;28;20030;-70
2022/01/30 06:20:46;;;;;;;14.02;1.80;;;;;;;3.32;87.36;102818.81;5019583;28;20025;-70
2022/01/30 06:23:11;;;;;;;11.35;2.08;;;;;;;3.25;87.75;102818.06;5016474;28;20067;-70
2022/01/30 06:25:37;;;;;;;12.80;2.55;;;;;;;3.15;88.19;102802.28;5014876;28;20060;-69
2022/01/30 06:28:02;;;;;;;16.63;2.03;;;;;;;3.29;88.32;102823.31;5015298;28;20025;-70
2022/01/30 06:30:28;;;;;;;16.67;2.15;;;;;;;3.19;88.46;102834.97;5011930;28;20128;-69
2022/01/30 06:32:53;;;;;;;14.20;2.40;;;;;;;3.13;88.68;102824.41;5012097;28;20033;-70
2022/01/30 06:35:18;;;;;;;13.02;1.63;;;;;;;3.20;88.71;102830.50;5017252;28;20076;-70
2022/01/30 06:37:44;;;;;;;9.27;1.50;;;;;;;3.26;87.96;102847.25;5014619;28;20033;-69
2022/01/30 06:40:10;;;;;;;13.30;2.38;;;;;;;3.31;87.77;102841.88;5012959;28;20052;-70
2022/01/30 06:42:35;;;;;;;8.80;2.17;;;;;;;3.25;88.45;102847.25;5013658;28;20144;-69
2022/01/30 06:45:00;;;;;;;12.00;1.65;;;;;;;3.23;88.05;102838.44;5018832;28;20039;-69
2022/01/30 06:47:27;;;;;;;11.10;1.67;;;;;;;3.20;88.20;102844.69;5013873;28;20104;-69
2022/01/30 06:49:52;;;;;;;13.85;2.20;;;;;;;3.10;89.05;102845.69;5015579;28;20420;-69
2022/01/30 06:52:18;;;;;;;9.45;1.83;;;;;;;3.04;89.31;102849.31;5014347;28;20475;-69
2022/01/30 06:54:43;;;;;;;13.55;2.20;;;;;;;3.00;89.25;102856.47;5010885;28;20132;-69
2022/01/30 06:57:08;;;;;;;10.45;1.52;;;;;;;3.04;89.25;102862.59;5014391;28;20040;-69
2022/01/30 06:59:34;;;;;;;12.65;1.80;;;;;;;2.88;89.61;102851.31;5015732;28;20061;-70
2022/01/30 07:01:59;;;;;;;22.95;2.40;;;;;;;2.86;90.20;102863.72;5008568;28;20502;-69
2022/01/30 07:04:24;;;;;;;21.77;2.65;;;;;;;2.75;90.82;102857.69;5013259;28;20029;-70
2022/01/30 07:06:50;;;;;;;5.88;1.67;;;;;;;2.77;90.89;102870.00;5013570;28;20021;-69
2022/01/30 07:09:15;;;;;;;15.13;2.10;;;;;;;2.66;91.28;102862.19;5015928;28;20033;-70
2022/01/30 07:11:40;;;;;;;20.20;2.75;;;;;;;2.60;91.76;102866.69;5014892;28;20221;-69
2022/01/30 07:14:06;;;;;;;14.50;2.72;;;;;;;2.61;92.13;102879.94;5017652;28;20121;-69
2022/01/30 07:16:31;;;;;;;10.75;2.20;;;;;;;2.62;92.35;102878.16;5014759;28;20161;-70
2022/01/30 07:18:57;;;;;;;25.00;3.55;;;;;;;2.64;92.55;102885.19;5015381;28;20418;-70
2022/01/30 07:21:22;;;;;;;18.98;2.47;;;;;;;2.74;92.10;102885.09;5015120;28;20069;-69
2022/01/30 07:23:47;;;;;;;12.95;3.25;;;;;;;2.81;91.92;102892.06;5017301;28;20108;-70
2022/01/30 07:26:13;;;;;;;18.73;3.33;;;;;;;2.83;91.72;102896.47;5014158;28;20029;-69
2022/01/30 07:28:38;;;;;;;23.15;3.42;;;;;;;2.88;91.58;102895.53;4996445;28;20517;-69
2022/01/30 07:31:03;;;;;;;15.68;2.30;;;;;;;2.85;91.70;102894.69;5014911;28;20507;-69
2022/01/30 07:33:29;;;;;;;18.15;2.40;;;;;;;2.85;92.06;102902.66;5014355;28;20033;-69
2022/01/30 07:35:56;;;;;;;8.73;3.00;;;;;;;2.82;92.06;102904.44;5015110;28;20060;-69
2022/01/30 07:38:22;;;;;;;15.90;2.65;;;;;;;2.85;92.02;102907.94;5014829;28;20790;-69
2022/01/30 07:40:48;;;;;;;17.50;3.20;;;;;;;2.84;91.94;102900.88;5015344;28;20128;-69
2022/01/30 07:43:14;;;;;;;12.80;2.72;;;;;;;2.88;91.82;102909.69;5029270;28;20555;-69
2022/01/30 07:45:39;;;;;;;11.93;2.30;;;;;;;2.94;91.73;102914.91;5014603;28;20037;-70
2022/01/30 07:48:04;;;;;;;12.20;2.22;;;;;;;3.07;91.56;102915.63;5032461;28;20818;-70
2022/01/30 07:50:30;;;;;;;27.10;3.63;;;;;;;3.07;90.93;102907.69;4995590;28;20026;-69
2022/01/30 07:52:55;;;;;;;12.27;3.33;;;;;;;3.22;90.84;102919.88;5010967;28;20086;-70
2022/01/30 07:55:20;;;;;;;18.00;3.80;;;;;;;3.15;90.01;102903.16;5013251;28;20124;-69
2022/01/30 07:57:46;;;;;;;18.70;3.30;;;;;;;3.28;89.94;102922.44;5014226;28;20100;-69
2022/01/30 08:00:12;;;;;;;14.00;2.70;;;;;;;3.18;90.11;102926.13;5011509;28;20045;-69
2022/01/30 08:02:37;;;;;;;13.70;2.35;;;;;;;3.11;90.72;102921.78;5012419;28;21065;-69
2022/01/30 08:05:03;;;;;;;11.50;2.13;;;;;;;3.12;91.00;102934.16;5012263;28;20037;-69
2022/01/30 08:07:29;;;;;;;12.90;3.42;;;;;;;3.19;90.93;102934.94;5009873;28;20116;-70
2022/01/30 08:09:55;;;;;;;14.60;2.20;;;;;;;3.37;90.54;102939.13;5009537;28;20033;-69
2022/01/30 08:12:20;;;;;;;18.23;2.33;;;;;;;3.41;89.60;102920.50;5010972;28;20111;-69
2022/01/30 08:14:45;;;;;;;14.50;2.67;;;;;;;3.54;89.23;102922.97;5029156;28;20033;-69
2022/01/30 08:17:17;;;;;;;26.02;2.72;;;;;;;3.53;89.37;102931.84;5007463;28;20025;-70
2022/01/30 08:19:44;;;;;;;23.92;3.20;;;;;;;3.63;89.28;102937.88;5025505;28;20099;-69
2022/01/30 08:22:10;;;;;;;11.98;2.38;;;;;;;3.66;88.82;102937.84;5008906;28;20025;-69
2022/01/30 08:24:35;;;;;;;15.30;3.17;;;;;;;3.65;89.70;102925.47;4995413;28;20075;-70
2022/01/30 08:27:00;;;;;;;12.35;2.13;;;;;;;3.65;89.07;102915.72;5010024;28;20072;-69
2022/01/30 08:29:25;;;;;;;13.48;2.35;;;;;;;3.94;87.96;102935.66;5014802;28;20116;-67
2022/01/30 08:31:51;;;;;;;21.45;3.03;;;;;;;4.18;87.30;102926.38;5012596;28;20026;-71
2022/01/30 08:34:16;;;;;;;20.38;2.58;;;;;;;4.10;87.92;102919.44;5013304;28;20463;-68
2022/01/30 08:36:41;;;;;;;20.40;3.65;;;;;;;4.17;87.90;102937.91;5012020;28;20035;-71
2022/01/30 08:39:07;;;;;;;14.82;3.63;;;;;;;4.28;87.14;102947.50;5031305;28;20446;-71
2022/01/30 08:41:32;;;;;;;13.77;2.90;;;;;;;4.29;86.80;102935.94;5013628;28;20037;-70
2022/01/30 08:43:57;;;;;;;23.60;3.33;;;;;;;4.46;86.76;102939.16;5012137;28;20036;-69
2022/01/30 08:46:23;;;;;;;22.77;3.22;;;;;;;4.38;85.54;102943.75;5014900;28;20037;-70
2022/01/30 08:48:48;;;;;;;24.42;3.25;;;;;;;4.26;86.09;102926.22;5024351;28;20120;-69
2022/01/30 08:51:13;;;;;;;18.55;2.55;;;;;;;4.44;85.75;102958.75;5014276;28;20065;-71
2022/01/30 08:53:39;;;;;;;19.17;2.80;;;;;;;4.42;85.84;102965.88;5017431;28;20030;-70
2022/01/30 08:56:04;;;;;;;19.85;5.78;;;;;;;4.35;85.55;102963.31;5012793;28;20033;-70
2022/01/30 08:58:30;;;;;;;16.67;3.33;;;;;;;4.43;85.50;102959.63;5010494;28;20029;-70
2022/01/30 09:00:55;;;;;;;28.95;4.40;;;;;;;4.46;85.96;102964.91;5018144;28;20375;-70
2022/01/30 09:03:21;;;;;;;17.15;5.13;;;;;;;4.30;85.83;102956.31;5025110;28;20487;-70
2022/01/30 09:05:46;;;;;;;17.98;2.75;;;;;;;4.41;85.01;102975.59;5009730;28;20041;-72
2022/01/30 09:08:11;;;;;;;23.05;3.90;;;;;;;4.72;85.11;102977.72;5015427;28;20421;-69
2022/01/30 09:10:38;;;;;;;18.92;4.00;;;;;;;5.07;83.12;102961.94;5015784;28;20029;-68
2022/01/30 09:13:04;;;;;;;24.50;4.13;;;;;;;5.58;81.37;102983.97;5016757;28;20540;-70
2022/01/30 09:15:30;;;;;;;18.20;3.40;;;;;;;5.85;79.49;102986.00;5014049;28;20120;-70
2022/01/30 09:17:58;;;;;;;23.27;4.15;;;;;;;6.06;80.15;102978.47;5020537;28;21874;-69
2022/01/30 09:20:24;;;;;;;15.35;3.92;;;;;;;5.96;78.94;102991.06;5017162;28;20029;-69
2022/01/30 09:22:51;;;;;;;23.58;3.70;;;;;;;6.01;79.70;102988.34;5020912;28;20045;-69
2022/01/30 09:25:17;;;;;;;24.40;5.20;;;;;;;5.82;79.11;102986.09;5019862;28;20017;-69
2022/01/30 09:27:42;;;;;;;20.25;3.35;;;;;;;5.92;77.95;102984.09;5019101;28;20087;-69
2022/01/30 09:30:08;;;;;;;24.88;3.45;;;;;;;6.40;78.61;102998.06;5016886;28;20036;-70
2022/01/30 09:32:34;;;;;;;12.65;2.70;;;;;;;6.69;77.91;102991.94;5014393;28;20112;-69
2022/01/30 09:34:59;;;;;;;17.42;3.92;;;;;;;6.88;75.21;102995.00;5019548;28;20115;-70
2022/01/30 09:37:25;;;;;;;14.85;2.63;;;;;;;7.12;76.71;102997.91;5015824;28;20088;-69
2022/01/30 09:39:50;;;;;;;11.63;3.38;;;;;;;7.00;75.73;103006.28;5015107;28;20108;-69
2022/01/30 09:42:18;;;;;;;15.88;3.65;;;;;;;6.82;74.72;103000.50;5015954;28;20140;-70
2022/01/30 09:44:43;;;;;;;21.00;6.90;;;;;;;6.67;76.64;102996.44;5030294;28;20112;-69
2022/01/30 09:47:14;;;;;;;24.85;6.63;;;;;;;6.58;75.21;103000.25;5029609;28;20128;-70
2022/01/30 09:49:44;;;;;;;29.05;7.18;;;;;;;6.45;76.28;103014.84;5017656;28;20030;-70
2022/01/30 09:52:10;;;;;;;23.65;4.22;;;;;;;6.36;76.13;103009.72;5034872;28;20029;-70
2022/01/30 09:54:35;;;;;;;18.55;3.05;;;;;;;6.36;76.43;103010.59;5006611;28;20033;-68
2022/01/30 09:57:01;;;;;;;22.10;4.70;;;;;;;6.29;77.70;103011.69;5017380;28;20029;-70
2022/01/30 09:59:27;;;;;;;30.70;4.57;;;;;;;6.57;76.64;103006.50;5016911;28;20033;-69
2022/01/30 10:01:52;;;;;;;21.83;3.55;;;;;;;6.03;76.76;103013.19;5015420;28;20807;-68
2022/01/30 10:04:18;;;;;;;26.52;4.05;;;;;;;6.05;75.96;103015.81;5017956;28;20037;-68
2022/01/30 10:06:57;;;;;;;19.02;4.07;;;;;;;6.03;77.23;103023.88;5019296;28;20400;-69
2022/01/30 10:09:29;;;;;;;16.20;2.67;;;;;;;6.51;75.89;103021.81;5011279;28;20045;-69
2022/01/30 10:12:12;;;;;;;28.73;3.92;;;;;;;7.26;73.94;103018.88;5017628;28;20087;-68
2022/01/30 10:14:59;;;;;;;31.08;4.22;;;;;;;7.96;70.33;103020.31;5013692;28;20810;-68
2022/01/30 10:17:34;;;;;;;22.38;4.00;;;;;;;8.79;69.18;103026.53;5016110;28;20043;-68
2022/01/30 10:20:07;;;;;;;29.02;4.05;;;;;;;8.72;66.89;103018.78;5014448;28;20041;-68
2022/01/30 10:22:36;;;;;;;27.15;3.63;;;;;;;9.05;66.20;103023.88;5013093;28;20029;-68
2022/01/30 10:25:02;;;;;;;23.83;3.88;;;;;;;9.72;64.01;103032.94;5013532;28;20429;-69
2022/01/30 10:27:29;;;;;;;34.85;4.00;;;;;;;10.23;62.52;103032.72;5010688;28;20621;-69
2022/01/30 10:29:58;;;;;;;29.40;4.20;;;;;;;9.30;63.74;103031.84;5014279;28;20392;-68
2022/01/30 10:32:24;;;;;;;37.90;4.38;;;;;;;9.94;63.07;103042.81;5013746;28;20083;-67
2022/01/30 10:34:57;;;;;;;19.88;3.15;;;;;;;9.51;63.35;103032.00;5014632;28;20368;-69
2022/01/30 10:37:24;;;;;;;26.10;4.47;;;;;;;10.04;63.87;103033.47;5013922;28;20084;-68
2022/01/30 10:39:53;;;;;;;23.92;5.30;;;;;;;9.83;61.86;103025.38;5014476;28;20035;-68
2022/01/30 10:42:49;;;;;;;32.72;5.00;;;;;;;9.34;62.78;103030.81;5011426;28;20048;-69
2022/01/30 10:45:15;;;;;;;19.63;4.20;;;;;;;9.65;62.60;103028.78;5012024;28;20426;-69
2022/01/30 10:47:42;;;;;;;20.77;4.13;;;;;;;8.79;63.78;103029.22;5016110;28;20070;-69
2022/01/30 10:50:17;;;;;;;20.90;2.90;;;;;;;8.95;64.77;103023.31;5020757;28;20160;-68
2022/01/30 10:52:53;;;;;;;24.27;3.83;;;;;;;9.51;63.55;103023.94;5016158;28;20032;-68
2022/01/30 10:55:37;;;;;;;22.48;3.67;;;;;;;9.14;62.00;103020.81;5017620;28;20067;-68
2022/01/30 10:58:03;;;;;;;18.30;3.05;;;;;;;8.84;62.97;103016.53;5031468;28;20100;-69
2022/01/30 11:00:56;;;;;;;18.35;3.50;;;;;;;8.67;64.70;103021.63;5019519;28;20025;-69
2022/01/30 11:03:37;;;;;;;21.20;2.70;;;;;;;9.93;61.30;103014.28;5016697;28;20077;-69
2022/01/30 11:06:03;;;;;;;24.45;3.75;;;;;;;9.62;60.87;103002.94;5018201;28;20037;-69
2022/01/30 11:08:31;;;;;;;19.55;3.92;;;;;;;9.18;63.02;103021.59;5017006;28;20044;-69
2022/01/30 11:11:09;;;;;;;18.48;3.30;;;;;;;10.09;60.73;103007.34;5019874;28;20139;-68
2022/01/30 11:13:45;;;;;;;19.40;3.45;;;;;;;10.76;58.22;102994.66;5012670;28;20029;-69
2022/01/30 11:18:55;;;;;;;22.00;3.75;;;;;;;12.12;53.46;102998.25;5026076;28;20037;-68
2022/01/30 11:21:22;;;;;;;15.93;2.90;;;;;;;12.67;51.67;102985.59;5012057;28;20693;-69
2022/01/30 11:23:50;;;;;;;22.23;3.22;;;;;;;12.88;50.51;102986.25;5013687;28;20377;-69
2022/01/30 11:26:15;;;;;;;22.48;3.63;;;;;;;12.97;51.15;102984.91;5012636;28;20465;-70
2022/01/30 11:28:41;;;;;;;16.85;3.05;;;;;;;12.58;50.72;102984.22;5013542;28;20515;-70
2022/01/30 11:31:07;;;;;;;23.45;3.85;;;;;;;10.74;55.02;102991.19;5013103;28;20053;-69
2022/01/30 11:33:33;;;;;;;27.00;4.85;;;;;;;10.78;55.68;102976.66;5018993;28;20174;-68
2022/01/30 11:35:59;;;;;;;17.13;3.40;;;;;;;11.10;55.92;102984.25;5012483;28;20109;-70
2022/01/30 11:38:25;;;;;;;26.23;4.63;;;;;;;10.97;56.70;102980.34;5012267;28;20531;-70
2022/01/30 11:41:14;;;;;;;35.72;4.95;;;;;;;11.37;55.35;102983.91;5015092;28;20044;-69
2022/01/30 11:43:39;;;;;;;22.65;5.75;;;;;;;11.44;52.65;102985.34;5015673;28;20021;-70
2022/01/30 11:46:23;;;;;;;17.75;3.63;;;;;;;12.51;51.28;102979.25;5013664;28;20029;-69
2022/01/30 11:49:40;;;;;;;19.40;4.30;;;;;;;12.41;50.63;102968.06;5015719;28;20040;-70
2022/01/30 11:52:07;;;;;;;25.90;6.25;;;;;;;13.11;51.98;102976.03;4976698;28;20886;-69
2022/01/30 11:54:42;;;;;;;23.02;3.90;;;;;;;13.32;50.47;102979.38;5010181;28;20045;-68
2022/01/30 11:57:19;;;;;;;27.25;3.97;;;;;;;12.28;52.57;102981.31;5024647;28;20037;-68
2022/01/30 11:59:47;;;;;;;24.85;3.92;;;;;;;11.30;56.22;102971.69;5011967;28;20543;-69
2022/01/30 12:02:28;;;;;;;28.80;4.10;;;;;;;10.12;60.34;102979.47;5034096;28;20029;-70
2022/01/30 12:05:00;;;;;;;30.85;5.70;;;;;;;10.12;61.88;102974.13;5015899;28;20045;-69
2022/01/30 12:07:41;;;;;;;37.83;10.88;;;;;;;9.49;63.05;102980.22;5014409;28;20033;-69
2022/01/30 12:10:15;;;;;;;37.88;8.90;;;;;;;8.98;64.86;102978.53;5015113;28;20470;-69
2022/01/30 12:13:01;;;;;;;40.70;11.25;;;;;;;9.51;65.20;102973.00;5014820;28;20057;-67
2022/01/30 12:15:42;;;;;;;55.28;15.65;;;;;;;10.93;60.02;102971.56;5033200;28;20028;-69
2022/01/30 12:18:17;;;;;;;55.85;14.02;;;;;;;12.01;56.58;102954.81;5006419;28;20212;-69
2022/01/30 12:21:11;;;;;;;27.02;4.70;;;;;;;10.77;57.78;102971.38;5028097;28;20029;-71